Terminal Aerodrome Forecast
Issued by NWS

Home | Current Version | Previous Version | Text Only | Print | Product List | Glossary On
Versions: 1 2 3 4 5 6 7 8 9 10 11 12 13 14 15 16 17
000
FTUS45 KVEF 280300 AAC
TAFDAG
TAF AMD
KDAG 280327Z 2803/2824 21012KT P6SM VCTS SCT100CB BKN150
     FM280400 09012G20KT P6SM VCTS SCT090CB BKN120
     FM280700 22010KT P6SM BKN150
     FM282000 VRB06KT P6SM SCT150=

USA.gov is the U.S. government's official web portal to all federal, state and local government web resources and services.